createdAt,value
2022-07-31T00:00:53.702Z,16.20
2022-07-31T00:03:22.209Z,16.20
2022-07-31T00:05:50.743Z,16.20
2022-07-31T00:08:19.226Z,16.10
2022-07-31T00:10:47.701Z,16.10
2022-07-31T00:13:16.213Z,16.10
2022-07-31T00:15:44.701Z,16.00
2022-07-31T00:18:14.577Z,16.00
2022-07-31T00:20:44.428Z,16.00
2022-07-31T00:23:13.427Z,15.90
2022-07-31T00:25:47.720Z,15.90
2022-07-31T00:28:16.189Z,15.90
2022-07-31T00:30:44.666Z,15.90
2022-07-31T00:33:15.942Z,15.80
2022-07-31T00:35:44.428Z,15.80
2022-07-31T00:38:28.338Z,15.80
2022-07-31T00:40:57.245Z,15.60
2022-07-31T00:43:29.997Z,15.80
2022-07-31T00:45:59.608Z,15.70
2022-07-31T00:48:29.739Z,15.70
2022-07-31T00:50:58.533Z,15.70
2022-07-31T00:53:27.158Z,15.70
2022-07-31T00:55:57.516Z,15.60
2022-07-31T00:58:26.384Z,15.60
2022-07-31T01:00:54.924Z,15.60
2022-07-31T01:03:23.493Z,15.60
2022-07-31T01:05:53.338Z,15.60
2022-07-31T01:08:21.855Z,15.60
2022-07-31T01:10:57.225Z,15.60
2022-07-31T01:13:32.814Z,15.60
2022-07-31T01:16:04.541Z,15.60
2022-07-31T01:18:36.571Z,15.50
2022-07-31T01:21:09.875Z,15.50
2022-07-31T01:24:16.095Z,15.60
2022-07-31T01:27:05.897Z,15.50
2022-07-31T01:29:40.956Z,15.50
2022-07-31T01:32:12.162Z,15.50
2022-07-31T01:34:45.599Z,15.50
2022-07-31T01:37:24.315Z,15.50
2022-07-31T01:39:57.442Z,15.50
2022-07-31T01:42:27.000Z,15.50
2022-07-31T01:45:01.490Z,15.50
2022-07-31T01:47:34.240Z,15.40
2022-07-31T01:50:05.617Z,15.40
2022-07-31T01:52:35.482Z,15.40
2022-07-31T01:55:05.658Z,15.40
2022-07-31T01:57:36.519Z,15.40
2022-07-31T02:00:14.878Z,15.40
2022-07-31T02:03:07.674Z,15.40
2022-07-31T02:05:41.867Z,15.30
2022-07-31T02:08:12.612Z,15.30
2022-07-31T02:10:46.158Z,15.30
2022-07-31T02:13:17.974Z,15.30
2022-07-31T02:15:49.610Z,15.30
2022-07-31T02:18:23.329Z,15.20
2022-07-31T02:21:12.315Z,15.20
2022-07-31T02:23:40.828Z,15.30
2022-07-31T02:26:10.145Z,15.20
2022-07-31T02:28:43.089Z,15.30
2022-07-31T02:31:15.176Z,15.30
2022-07-31T02:33:48.186Z,15.30
2022-07-31T02:36:19.949Z,15.30
2022-07-31T02:38:49.945Z,15.30
2022-07-31T02:41:20.190Z,15.30
2022-07-31T02:43:49.088Z,15.30
2022-07-31T02:46:23.413Z,15.30
2022-07-31T02:48:53.521Z,15.30
2022-07-31T02:51:24.801Z,15.30
2022-07-31T02:53:54.824Z,15.30
2022-07-31T02:56:26.554Z,15.30
2022-07-31T02:58:55.946Z,15.30
2022-07-31T03:01:29.159Z,15.30
2022-07-31T03:03:58.365Z,15.30
2022-07-31T03:06:29.762Z,15.30
2022-07-31T03:08:58.594Z,15.30
2022-07-31T03:11:27.307Z,15.30
2022-07-31T03:13:58.362Z,15.30
2022-07-31T03:16:29.441Z,15.30
2022-07-31T03:18:59.544Z,15.30
2022-07-31T03:21:28.804Z,15.30
2022-07-31T03:23:58.045Z,15.30
2022-07-31T03:26:27.099Z,15.30
2022-07-31T03:28:55.807Z,15.30
2022-07-31T03:31:24.340Z,15.30
2022-07-31T03:33:54.252Z,15.30
2022-07-31T03:36:22.927Z,15.30
2022-07-31T03:38:51.597Z,15.30
2022-07-31T03:41:31.806Z,15.40
2022-07-31T03:44:00.962Z,15.30
2022-07-31T03:46:30.629Z,15.30
2022-07-31T03:49:01.250Z,15.40
2022-07-31T03:51:30.798Z,15.40
2022-07-31T03:54:00.041Z,15.30
2022-07-31T03:56:52.530Z,15.30
2022-07-31T03:59:22.106Z,15.30
2022-07-31T04:02:10.268Z,15.30
2022-07-31T04:04:45.187Z,15.30
2022-07-31T04:07:13.688Z,15.30
2022-07-31T04:09:43.012Z,15.30
2022-07-31T04:12:13.379Z,15.30
2022-07-31T04:14:41.915Z,15.30
2022-07-31T04:17:10.844Z,15.30
2022-07-31T04:19:39.537Z,15.20
2022-07-31T04:22:09.740Z,15.20
2022-07-31T04:24:39.551Z,15.20
2022-07-31T04:27:23.483Z,15.20
2022-07-31T04:29:54.859Z,15.20
2022-07-31T04:32:24.173Z,15.20
2022-07-31T04:34:59.384Z,15.20
2022-07-31T04:37:29.243Z,15.10
2022-07-31T04:39:58.617Z,15.10
2022-07-31T04:42:27.132Z,15.10
2022-07-31T04:45:01.516Z,15.10
2022-07-31T04:47:31.616Z,15.20
2022-07-31T04:50:00.276Z,15.10
2022-07-31T04:52:30.059Z,15.10
2022-07-31T04:55:05.047Z,15.10
2022-07-31T04:57:33.776Z,15.10
2022-07-31T05:00:03.348Z,15.10
2022-07-31T05:02:34.559Z,15.10
2022-07-31T05:05:03.436Z,15.10
2022-07-31T05:07:36.600Z,15.10
2022-07-31T05:10:34.310Z,15.10
2022-07-31T05:13:03.475Z,15.10
2022-07-31T05:15:33.783Z,15.20
2022-07-31T05:18:02.275Z,15.20
2022-07-31T05:20:50.444Z,15.20
2022-07-31T05:23:30.437Z,15.20
2022-07-31T05:26:25.470Z,15.20
2022-07-31T05:28:58.594Z,15.20
2022-07-31T05:31:28.811Z,15.20
2022-07-31T05:33:59.246Z,15.20
2022-07-31T05:36:28.115Z,15.20
2022-07-31T05:38:57.930Z,15.30
2022-07-31T05:41:41.826Z,15.20
2022-07-31T05:44:28.656Z,15.20
2022-07-31T05:49:26.853Z,15.20
2022-07-31T05:51:57.342Z,15.20
2022-07-31T05:54:27.164Z,15.20
2022-07-31T05:57:33.350Z,15.20
2022-07-31T06:00:04.047Z,15.30
2022-07-31T06:02:40.570Z,15.30
2022-07-31T06:05:28.010Z,15.30
2022-07-31T06:07:56.610Z,15.30
2022-07-31T06:10:27.006Z,15.30
2022-07-31T06:12:56.397Z,15.30
2022-07-31T06:15:26.059Z,15.40
2022-07-31T06:17:54.853Z,15.30
2022-07-31T06:20:30.748Z,15.40
2022-07-31T06:23:00.017Z,15.40
2022-07-31T06:25:37.365Z,15.40
2022-07-31T06:28:10.359Z,15.40
2022-07-31T06:30:40.833Z,15.40
2022-07-31T06:33:09.431Z,15.50
2022-07-31T06:35:48.761Z,15.50
2022-07-31T06:38:43.655Z,15.50
2022-07-31T06:41:48.252Z,15.50
2022-07-31T06:44:32.864Z,15.60
2022-07-31T06:47:20.965Z,15.60
2022-07-31T06:50:07.950Z,15.60
2022-07-31T06:52:40.292Z,15.60
2022-07-31T06:55:09.883Z,15.60
2022-07-31T06:57:40.347Z,15.60
2022-07-31T07:00:19.494Z,15.60
2022-07-31T07:02:49.745Z,15.50
2022-07-31T07:05:18.692Z,15.60
2022-07-31T07:07:51.359Z,15.60
2022-07-31T07:10:19.915Z,15.60
2022-07-31T07:13:02.917Z,15.60
2022-07-31T07:15:36.159Z,15.50
2022-07-31T07:18:05.536Z,15.40
2022-07-31T07:20:38.108Z,15.40
2022-07-31T07:23:06.934Z,15.40
2022-07-31T07:25:54.451Z,15.40
2022-07-31T07:28:30.960Z,15.40
2022-07-31T07:31:05.090Z,15.40
2022-07-31T07:33:39.981Z,15.50
2022-07-31T07:36:23.736Z,15.50
2022-07-31T07:39:06.229Z,15.50
2022-07-31T07:41:38.605Z,15.50
2022-07-31T07:44:09.482Z,15.50
2022-07-31T07:46:39.198Z,15.50
2022-07-31T07:49:09.617Z,15.60
2022-07-31T07:52:09.710Z,15.50
2022-07-31T07:54:41.020Z,15.60
2022-07-31T07:57:48.183Z,15.60
2022-07-31T08:00:43.849Z,15.70
2022-07-31T08:03:49.213Z,15.80
2022-07-31T08:06:02.589Z,15.80
2022-07-31T08:08:31.194Z,15.80
2022-07-31T08:11:17.466Z,15.80
2022-07-31T08:14:07.341Z,15.90
2022-07-31T08:16:46.102Z,15.90
2022-07-31T08:19:14.804Z,15.90
2022-07-31T08:21:43.329Z,16.00
2022-07-31T08:24:12.564Z,16.10
2022-07-31T08:26:58.781Z,16.40
2022-07-31T08:29:28.959Z,16.60
2022-07-31T08:32:15.434Z,16.60
2022-07-31T08:35:10.632Z,16.60
2022-07-31T08:37:50.797Z,16.50
2022-07-31T08:40:31.477Z,16.60
2022-07-31T08:43:19.426Z,16.50
2022-07-31T08:45:55.067Z,16.40
2022-07-31T08:48:33.682Z,16.50
2022-07-31T08:51:04.452Z,16.50
2022-07-31T08:53:57.378Z,16.50
2022-07-31T08:56:28.050Z,16.60
2022-07-31T08:58:57.453Z,16.60
2022-07-31T09:01:26.162Z,16.70
2022-07-31T09:03:57.804Z,16.70
2022-07-31T09:06:27.200Z,16.80
2022-07-31T09:08:57.533Z,16.90
2022-07-31T09:11:26.151Z,16.90
2022-07-31T09:14:28.017Z,17.00
2022-07-31T09:16:57.453Z,17.10
2022-07-31T09:19:51.655Z,17.20
2022-07-31T09:22:27.093Z,17.20
2022-07-31T09:25:08.787Z,17.20
2022-07-31T09:27:37.273Z,17.30
2022-07-31T09:30:08.127Z,17.20
2022-07-31T09:32:54.798Z,17.20
2022-07-31T09:35:48.107Z,17.10
2022-07-31T09:38:16.967Z,17.20
2022-07-31T09:41:56.949Z,17.30
2022-07-31T09:44:37.164Z,17.40
2022-07-31T09:47:06.812Z,17.40
2022-07-31T09:49:36.324Z,17.40
2022-07-31T09:52:06.589Z,17.40
2022-07-31T09:54:35.389Z,17.50
2022-07-31T09:57:13.215Z,17.50
2022-07-31T09:59:55.137Z,17.50
2022-07-31T10:02:27.389Z,17.60
2022-07-31T10:04:59.109Z,17.60
2022-07-31T10:07:35.802Z,17.70
2022-07-31T10:10:15.499Z,17.70
2022-07-31T10:13:07.764Z,17.80
2022-07-31T10:15:38.497Z,17.90
2022-07-31T10:18:48.378Z,17.90
2022-07-31T10:21:42.403Z,17.90
2022-07-31T10:24:28.105Z,18.10
2022-07-31T10:27:01.629Z,18.20
2022-07-31T10:29:33.413Z,18.30
2022-07-31T10:32:06.517Z,18.40
2022-07-31T10:34:39.001Z,18.40
2022-07-31T10:37:36.106Z,18.50
2022-07-31T10:40:27.767Z,18.50
2022-07-31T10:43:18.284Z,18.80
2022-07-31T10:45:56.082Z,19.00
2022-07-31T10:48:40.143Z,19.10
2022-07-31T10:51:31.840Z,19.00
2022-07-31T10:54:07.702Z,18.90
2022-07-31T10:56:56.501Z,19.00
2022-07-31T10:59:57.737Z,19.00
2022-07-31T11:02:55.714Z,19.10
2022-07-31T11:05:31.363Z,19.30
2022-07-31T11:08:43.475Z,19.20
2022-07-31T11:11:36.815Z,19.30
2022-07-31T11:14:38.989Z,19.50
2022-07-31T11:18:25.267Z,19.70
2022-07-31T11:20:28.504Z,19.80
2022-07-31T11:23:00.653Z,19.60
2022-07-31T11:25:32.493Z,19.60
2022-07-31T11:28:12.818Z,19.60
2022-07-31T11:30:54.524Z,19.70
2022-07-31T11:33:42.014Z,19.50
2022-07-31T11:36:16.505Z,19.40
2022-07-31T11:38:47.568Z,19.60
2022-07-31T11:41:16.798Z,19.90
2022-07-31T11:43:47.231Z,19.90
2022-07-31T11:46:26.292Z,20.10
2022-07-31T11:48:57.186Z,20.40
2022-07-31T11:51:26.954Z,20.40
2022-07-31T11:53:57.792Z,20.20
2022-07-31T11:56:28.376Z,20.40
2022-07-31T11:58:58.487Z,20.30
2022-07-31T12:01:29.834Z,20.40
2022-07-31T12:04:01.694Z,20.30
2022-07-31T12:06:39.373Z,20.40
2022-07-31T12:09:08.039Z,20.50
2022-07-31T12:11:56.777Z,20.60
2022-07-31T12:14:32.459Z,20.60
2022-07-31T12:17:04.709Z,21.00
2022-07-31T12:19:37.535Z,20.90
2022-07-31T12:22:14.687Z,21.10
2022-07-31T12:24:43.212Z,21.10
2022-07-31T12:27:16.166Z,21.30
2022-07-31T12:29:45.258Z,21.30
2022-07-31T12:32:25.791Z,21.40
2022-07-31T12:35:02.938Z,21.50
2022-07-31T12:37:32.327Z,21.30
2022-07-31T12:40:01.701Z,21.20
2022-07-31T12:42:40.843Z,21.20
2022-07-31T12:45:18.085Z,21.20
2022-07-31T12:47:54.518Z,21.60
2022-07-31T12:50:23.366Z,21.60
2022-07-31T12:52:51.868Z,21.70
2022-07-31T12:55:20.954Z,21.80
2022-07-31T12:57:51.728Z,21.60
2022-07-31T13:00:23.029Z,21.70
2022-07-31T13:02:54.661Z,21.80
2022-07-31T13:05:24.479Z,21.90
2022-07-31T13:07:53.500Z,22.00
2022-07-31T13:10:24.742Z,22.10
2022-07-31T13:12:54.324Z,22.10
2022-07-31T13:15:29.930Z,22.10
2022-07-31T13:18:03.364Z,22.00
2022-07-31T13:20:32.284Z,22.20
2022-07-31T13:23:02.516Z,22.10
2022-07-31T13:25:31.687Z,22.20
2022-07-31T13:28:00.672Z,22.30
2022-07-31T13:30:29.655Z,22.40
2022-07-31T13:32:59.628Z,22.50
2022-07-31T13:35:29.182Z,22.50
2022-07-31T13:37:58.307Z,22.50
2022-07-31T13:40:41.116Z,22.80
2022-07-31T13:43:09.818Z,22.90
2022-07-31T13:45:38.540Z,22.80
2022-07-31T13:48:09.902Z,22.90
2022-07-31T13:50:39.818Z,22.70
2022-07-31T13:53:09.113Z,22.80
2022-07-31T13:55:39.353Z,22.70
2022-07-31T13:58:08.699Z,22.80
2022-07-31T14:00:37.344Z,23.10
2022-07-31T14:03:05.913Z,23.40
2022-07-31T14:05:40.004Z,23.50
2022-07-31T14:08:32.816Z,23.50
2022-07-31T14:10:58.012Z,23.40
2022-07-31T14:13:27.057Z,23.30
2022-07-31T14:15:55.936Z,23.60
2022-07-31T14:18:24.839Z,23.40
2022-07-31T14:20:54.884Z,23.60
2022-07-31T14:23:34.066Z,23.50
2022-07-31T14:26:05.256Z,23.40
2022-07-31T14:28:33.865Z,23.50
2022-07-31T14:31:02.682Z,23.30
2022-07-31T14:33:31.330Z,23.10
2022-07-31T14:36:01.355Z,23.20
2022-07-31T14:38:30.108Z,23.20
2022-07-31T14:40:58.619Z,23.20
2022-07-31T14:43:27.157Z,22.90
2022-07-31T14:45:58.133Z,22.80
2022-07-31T14:48:27.421Z,22.80
2022-07-31T14:50:56.354Z,22.90
2022-07-31T14:53:26.127Z,22.80
2022-07-31T14:55:54.840Z,22.80
2022-07-31T14:58:32.473Z,22.90
2022-07-31T15:01:23.635Z,22.90
2022-07-31T15:03:55.375Z,22.90
2022-07-31T15:06:39.696Z,23.00
2022-07-31T15:09:14.984Z,23.00
2022-07-31T15:12:00.382Z,23.00
2022-07-31T15:14:30.603Z,23.00
2022-07-31T15:16:59.399Z,22.90
2022-07-31T15:19:28.096Z,22.90
2022-07-31T15:22:11.156Z,22.90
2022-07-31T15:24:48.851Z,23.00
2022-07-31T15:27:19.074Z,23.00
2022-07-31T15:30:03.979Z,23.00
2022-07-31T15:32:37.061Z,23.00
2022-07-31T15:35:06.472Z,23.10
2022-07-31T15:37:36.631Z,23.10
2022-07-31T15:40:11.951Z,23.00
2022-07-31T15:42:42.992Z,23.00
2022-07-31T15:45:13.781Z,23.10
2022-07-31T15:47:43.158Z,23.20
2022-07-31T15:50:13.186Z,23.30
2022-07-31T15:52:42.736Z,23.50
2022-07-31T15:55:12.782Z,23.50
2022-07-31T15:57:41.449Z,23.50
2022-07-31T16:00:12.193Z,23.40
2022-07-31T16:02:42.528Z,23.40
2022-07-31T16:05:21.534Z,23.40
2022-07-31T16:08:31.806Z,23.60
2022-07-31T16:10:54.423Z,23.50
2022-07-31T16:13:24.052Z,23.40
2022-07-31T16:15:52.762Z,23.30
2022-07-31T16:18:21.616Z,23.30
2022-07-31T16:20:50.131Z,23.30
2022-07-31T16:23:18.804Z,23.40
2022-07-31T16:25:47.625Z,23.30
2022-07-31T16:28:17.505Z,23.30
2022-07-31T16:30:46.835Z,23.30
2022-07-31T16:33:15.779Z,23.30
2022-07-31T16:35:44.459Z,23.30
2022-07-31T16:38:13.062Z,23.30
2022-07-31T16:40:41.681Z,23.20
2022-07-31T16:43:49.489Z,23.20
2022-07-31T16:46:00.278Z,23.20
2022-07-31T16:48:28.907Z,23.10
2022-07-31T16:50:57.395Z,23.20
2022-07-31T16:54:13.908Z,23.20
2022-07-31T16:56:16.270Z,23.20
2022-07-31T16:58:45.099Z,23.10
2022-07-31T17:01:58.350Z,23.10
2022-07-31T17:04:04.736Z,23.10
2022-07-31T17:06:37.295Z,23.00
2022-07-31T17:09:17.373Z,23.00
2022-07-31T17:11:48.572Z,23.00
2022-07-31T17:14:18.963Z,22.90
2022-07-31T17:16:50.976Z,22.90
2022-07-31T17:19:42.698Z,22.90
2022-07-31T17:22:11.187Z,22.90
2022-07-31T17:24:40.582Z,22.90
2022-07-31T17:27:10.216Z,22.80
2022-07-31T17:29:39.603Z,22.80
2022-07-31T17:32:11.046Z,22.80
2022-07-31T17:34:40.391Z,22.90
2022-07-31T17:37:09.491Z,22.90
2022-07-31T17:39:38.378Z,22.80
2022-07-31T17:42:09.326Z,22.70
2022-07-31T17:44:38.237Z,22.60
2022-07-31T17:47:10.445Z,22.60
2022-07-31T17:49:39.130Z,22.60
2022-07-31T17:52:08.391Z,22.50
2022-07-31T17:54:37.271Z,22.40
2022-07-31T17:57:06.415Z,22.40
2022-07-31T17:59:34.865Z,22.30
2022-07-31T18:02:04.781Z,22.20
2022-07-31T18:04:37.845Z,22.20
2022-07-31T18:07:08.307Z,22.10
2022-07-31T18:09:37.602Z,22.00
2022-07-31T18:12:08.205Z,22.00
2022-07-31T18:14:39.885Z,21.90
2022-07-31T18:17:08.566Z,21.90
2022-07-31T18:19:38.596Z,21.80
2022-07-31T18:22:07.589Z,21.80
2022-07-31T18:24:36.414Z,21.70
2022-07-31T18:27:07.627Z,21.70
2022-07-31T18:29:36.161Z,21.60
2022-07-31T18:32:05.529Z,21.60
2022-07-31T18:34:34.343Z,21.50
2022-07-31T18:37:04.219Z,21.40
2022-07-31T18:39:32.895Z,21.40
2022-07-31T18:42:17.801Z,21.30
2022-07-31T18:44:46.292Z,21.20
2022-07-31T18:47:15.373Z,21.10
2022-07-31T18:50:58.654Z,21.10
2022-07-31T18:52:33.948Z,21.00
2022-07-31T18:55:02.500Z,20.90
2022-07-31T18:57:31.761Z,20.90
2022-07-31T19:00:00.237Z,20.80
2022-07-31T19:02:29.337Z,20.70
2022-07-31T19:04:58.687Z,20.70
2022-07-31T19:07:28.566Z,20.60
2022-07-31T19:09:58.454Z,20.50
2022-07-31T19:12:27.162Z,20.40
2022-07-31T19:14:55.655Z,20.30
2022-07-31T19:17:24.283Z,20.20
2022-07-31T19:20:13.791Z,20.10
2022-07-31T19:23:01.965Z,20.00
2022-07-31T19:26:02.005Z,19.90
2022-07-31T19:28:22.925Z,19.80
2022-07-31T19:30:55.933Z,19.70
2022-07-31T19:33:24.916Z,19.80
2022-07-31T19:35:58.932Z,19.80
2022-07-31T19:38:29.754Z,19.80
2022-07-31T19:40:59.663Z,19.80
2022-07-31T19:43:28.589Z,19.80
2022-07-31T19:46:09.712Z,19.70
2022-07-31T19:48:43.734Z,19.70
2022-07-31T19:51:13.723Z,19.70
2022-07-31T19:53:42.773Z,19.70
2022-07-31T19:56:18.320Z,19.70
2022-07-31T19:58:49.362Z,19.60
2022-07-31T20:01:20.426Z,19.60
2022-07-31T20:03:49.267Z,19.50
2022-07-31T20:06:17.926Z,19.50
2022-07-31T20:08:46.628Z,19.40
2022-07-31T20:11:17.331Z,19.40
2022-07-31T20:13:45.924Z,19.50
2022-07-31T20:16:15.267Z,19.40
2022-07-31T20:18:44.211Z,19.30
2022-07-31T20:21:12.729Z,19.20
2022-07-31T20:23:41.971Z,19.10
2022-07-31T20:26:13.871Z,18.90
2022-07-31T20:28:44.438Z,18.80
2022-07-31T20:31:16.028Z,18.80
2022-07-31T20:33:57.409Z,18.60
2022-07-31T20:36:27.037Z,18.50
2022-07-31T20:38:57.432Z,18.40
2022-07-31T20:41:27.405Z,18.40
2022-07-31T20:43:57.250Z,18.30
2022-07-31T20:46:25.916Z,18.30
2022-07-31T20:48:54.440Z,18.30
2022-07-31T20:51:23.390Z,18.30
2022-07-31T20:53:52.430Z,18.30
2022-07-31T20:56:21.050Z,18.30
2022-07-31T20:58:51.776Z,18.20
2022-07-31T21:01:23.207Z,18.20
2022-07-31T21:03:51.789Z,18.10
2022-07-31T21:06:21.099Z,18.10
2022-07-31T21:08:50.060Z,18.10
2022-07-31T21:11:20.184Z,18.00
2022-07-31T21:13:48.933Z,18.00
2022-07-31T21:16:18.994Z,17.90
2022-07-31T21:18:50.743Z,17.80
2022-07-31T21:21:19.259Z,17.80
2022-07-31T21:23:47.860Z,17.80
2022-07-31T21:26:17.150Z,17.80
2022-07-31T21:28:46.542Z,17.80
2022-07-31T21:31:17.511Z,17.70
2022-07-31T21:33:46.943Z,17.70
2022-07-31T21:36:17.246Z,17.60
2022-07-31T21:38:46.342Z,17.60
2022-07-31T21:41:16.544Z,17.50
2022-07-31T21:43:58.859Z,17.50
2022-07-31T21:46:30.025Z,17.40
2022-07-31T21:48:58.865Z,17.30
2022-07-31T21:51:29.227Z,17.20
2022-07-31T21:53:57.709Z,17.10
2022-07-31T21:56:27.101Z,16.90
2022-07-31T21:58:55.550Z,16.90
2022-07-31T22:01:24.241Z,16.80
2022-07-31T22:03:52.691Z,16.70
2022-07-31T22:06:38.495Z,16.60
2022-07-31T22:09:08.329Z,16.50
2022-07-31T22:11:36.881Z,16.40
2022-07-31T22:14:05.451Z,16.30
2022-07-31T22:16:33.869Z,16.30
2022-07-31T22:19:02.962Z,16.20
2022-07-31T22:21:31.829Z,16.10
2022-07-31T22:24:00.814Z,16.10
2022-07-31T22:26:31.207Z,16.10
2022-07-31T22:29:00.524Z,16.10
2022-07-31T22:31:29.344Z,16.10
2022-07-31T22:33:58.047Z,16.20
2022-07-31T22:36:27.898Z,16.20
2022-07-31T22:38:57.374Z,16.10
2022-07-31T22:41:25.943Z,16.20
2022-07-31T22:44:13.791Z,16.10
2022-07-31T22:46:43.831Z,16.10
2022-07-31T22:49:13.820Z,16.10
2022-07-31T22:51:46.381Z,16.10
2022-07-31T22:54:15.498Z,16.00
2022-07-31T22:56:43.923Z,16.10
2022-07-31T22:59:13.779Z,16.00
2022-07-31T23:01:42.315Z,16.00
2022-07-31T23:04:10.842Z,16.00
2022-07-31T23:06:39.288Z,16.00
2022-07-31T23:09:07.725Z,16.00
2022-07-31T23:11:36.235Z,15.90
2022-07-31T23:14:04.831Z,15.90
2022-07-31T23:16:34.886Z,15.90
2022-07-31T23:19:03.481Z,15.90
2022-07-31T23:21:31.904Z,15.80
2022-07-31T23:24:00.431Z,15.70
2022-07-31T23:26:29.130Z,15.70
2022-07-31T23:28:58.226Z,15.70
2022-07-31T23:31:26.667Z,15.60
2022-07-31T23:33:56.534Z,15.60
2022-07-31T23:36:25.015Z,15.70
2022-07-31T23:38:53.464Z,15.70
2022-07-31T23:41:35.799Z,15.60
2022-07-31T23:44:04.997Z,15.70
2022-07-31T23:46:33.467Z,15.70
2022-07-31T23:49:04.337Z,15.70
2022-07-31T23:51:32.895Z,15.70
2022-07-31T23:54:05.530Z,15.80
2022-07-31T23:56:34.029Z,15.90
2022-07-31T23:59:02.553Z,15.90
